Time;durP1;ratioP1;P1;durP2;ratioP2;P2;SDS_P1;SDS_P2;PMS_P1;PMS_P2;Temp;Humidity;BMP_temperature;BMP_pressure;BME280_temperature;BME280_humidity;BME280_pressure;Samples;Min_cycle;Max_cycle;Signal;HPM_P1;HPM_P2
2023/09/02 00:00:34;;;;;;;7.18;2.65;;;;;;;;;;4995375;28;20101;-68
2023/09/02 00:03:00;;;;;;;6.45;2.72;;;;;;;;;;4994926;28;20373;-68
2023/09/02 00:05:25;;;;;;;5.47;2.90;;;;;;;;;;4999108;28;20089;-68
2023/09/02 00:07:51;;;;;;;5.28;2.70;;;;;;;;;;5000909;28;20099;-68
2023/09/02 00:10:16;;;;;;;8.77;4.13;;;;;;;;;;4986575;28;20599;-68
2023/09/02 00:12:42;;;;;;;4.50;3.10;;;;;;;;;;5001727;28;20053;-68
2023/09/02 00:15:07;;;;;;;4.88;3.05;;;;;;;;;;4996868;28;20030;-68
2023/09/02 00:17:34;;;;;;;6.93;3.15;;;;;;;;;;4994643;28;20072;-68
2023/09/02 00:19:59;;;;;;;6.72;3.05;;;;;;;;;;4989126;28;20108;-68
2023/09/02 00:22:24;;;;;;;4.93;3.25;;;;;;;;;;5000350;28;20359;-68
2023/09/02 00:24:51;;;;;;;5.28;2.95;;;;;;;;;;4997331;28;20030;-68
2023/09/02 00:27:16;;;;;;;9.82;2.90;;;;;;;;;;4980507;28;20038;-68
2023/09/02 00:29:41;;;;;;;6.45;3.38;;;;;;;;;;5000799;28;20528;-68
2023/09/02 00:32:07;;;;;;;4.95;2.55;;;;;;;;;;5002819;28;20110;-68
2023/09/02 00:34:32;;;;;;;5.72;2.97;;;;;;;;;;4996178;28;20076;-68
2023/09/02 00:36:58;;;;;;;4.97;2.80;;;;;;;;;;4988019;28;20488;-68
2023/09/02 00:39:23;;;;;;;3.30;2.60;;;;;;;;;;5000836;28;20084;-68
2023/09/02 00:41:52;;;;;;;4.18;2.53;;;;;;;;;;5000120;28;20415;-68
2023/09/02 00:44:17;;;;;;;4.63;2.47;;;;;;;;;;4992175;28;20031;-68
2023/09/02 00:46:44;;;;;;;4.22;2.30;;;;;;;;;;5006688;28;20049;-68
2023/09/02 00:49:10;;;;;;;4.88;2.55;;;;;;;;;;5009176;28;20021;-68
2023/09/02 00:51:35;;;;;;;4.07;2.53;;;;;;;;;;4998142;28;20018;-68
2023/09/02 00:54:00;;;;;;;3.20;2.45;;;;;;;;;;4994121;28;20034;-68
2023/09/02 00:56:28;;;;;;;3.95;2.00;;;;;;;;;;4997436;28;20030;-68
2023/09/02 00:58:56;;;;;;;5.50;2.30;;;;;;;;;;5000369;28;20046;-68
2023/09/02 01:01:21;;;;;;;3.45;2.00;;;;;;;;;;4987421;28;20034;-68
2023/09/02 01:03:47;;;;;;;4.15;2.58;;;;;;;;;;4995714;28;20492;-68
2023/09/02 01:06:12;;;;;;;5.57;2.70;;;;;;;;;;4993642;28;20516;-68
2023/09/02 01:08:38;;;;;;;5.93;2.95;;;;;;;;;;4997743;28;20040;-68
2023/09/02 01:11:03;;;;;;;7.45;3.00;;;;;;;;;;4999940;28;20114;-68
2023/09/02 01:13:30;;;;;;;4.78;3.15;;;;;;;;;;4995629;28;20032;-68
2023/09/02 01:15:56;;;;;;;4.97;3.08;;;;;;;;;;4993376;28;20026;-68
2023/09/02 01:18:22;;;;;;;4.95;3.13;;;;;;;;;;4997175;28;20057;-68
2023/09/02 01:21:00;;;;;;;6.43;2.88;;;;;;;;;;4999287;28;20038;-68
2023/09/02 01:23:41;;;;;;;3.45;2.50;;;;;;;;;;4997905;28;20046;-68
2023/09/02 01:26:34;;;;;;;3.78;2.55;;;;;;;;;;4980906;28;20045;-68
2023/09/02 01:29:04;;;;;;;7.75;3.08;;;;;;;;;;4993116;28;20026;-68
2023/09/02 01:31:32;;;;;;;3.72;2.60;;;;;;;;;;4991811;28;20531;-68
2023/09/02 01:33:59;;;;;;;6.03;2.88;;;;;;;;;;4998709;28;20038;-67
2023/09/02 01:36:27;;;;;;;4.13;3.13;;;;;;;;;;4989564;28;20419;-68
2023/09/02 01:38:53;;;;;;;7.97;3.67;;;;;;;;;;4998945;28;20061;-68
2023/09/02 01:41:22;;;;;;;7.22;3.55;;;;;;;;;;4995988;28;20037;-68
2023/09/02 01:43:48;;;;;;;6.97;3.00;;;;;;;;;;4993001;28;20102;-68
2023/09/02 01:46:14;;;;;;;6.40;3.30;;;;;;;;;;4994546;28;20030;-68
2023/09/02 01:48:39;;;;;;;5.75;3.10;;;;;;;;;;4997905;28;20117;-68
2023/09/02 01:51:06;;;;;;;6.30;3.58;;;;;;;;;;4997588;28;20137;-68
2023/09/02 01:53:31;;;;;;;6.00;3.05;;;;;;;;;;4992647;28;20038;-69
2023/09/02 01:55:57;;;;;;;7.63;2.95;;;;;;;;;;4993758;28;20137;-68
2023/09/02 01:58:23;;;;;;;5.97;2.60;;;;;;;;;;4998935;28;20030;-68
2023/09/02 02:00:48;;;;;;;5.97;2.92;;;;;;;;;;4998870;28;20080;-68
2023/09/02 02:03:28;;;;;;;11.45;3.60;;;;;;;;;;4990234;28;20045;-68
2023/09/02 02:05:53;;;;;;;6.00;2.92;;;;;;;;;;4993683;28;20408;-68
2023/09/02 02:09:07;;;;;;;8.95;2.80;;;;;;;;;;5000383;28;20034;-68
2023/09/02 02:11:38;;;;;;;4.00;2.40;;;;;;;;;;5008377;28;20058;-68
2023/09/02 02:14:04;;;;;;;8.70;2.40;;;;;;;;;;5002569;28;20038;-68
2023/09/02 02:16:30;;;;;;;5.80;2.78;;;;;;;;;;4993031;28;20025;-68
2023/09/02 02:18:57;;;;;;;5.32;2.70;;;;;;;;;;4992317;28;20044;-68
2023/09/02 02:21:23;;;;;;;4.20;2.63;;;;;;;;;;4995854;28;20081;-68
2023/09/02 02:23:48;;;;;;;3.05;2.40;;;;;;;;;;4998627;28;20057;-68
2023/09/02 02:26:15;;;;;;;4.45;2.50;;;;;;;;;;4993389;28;20053;-68
2023/09/02 02:28:41;;;;;;;8.68;2.70;;;;;;;;;;4991704;28;20042;-68
2023/09/02 02:31:07;;;;;;;7.38;2.95;;;;;;;;;;4995355;28;20040;-68
2023/09/02 02:33:32;;;;;;;5.40;3.03;;;;;;;;;;4998672;28;20030;-68
2023/09/02 02:35:58;;;;;;;3.15;2.30;;;;;;;;;;4987594;28;20112;-68
2023/09/02 02:38:23;;;;;;;4.93;2.40;;;;;;;;;;4997721;28;20046;-68
2023/09/02 02:40:48;;;;;;;5.18;2.38;;;;;;;;;;4992036;28;20038;-68
2023/09/02 02:43:14;;;;;;;6.10;2.28;;;;;;;;;;4990569;28;20026;-68
2023/09/02 02:45:41;;;;;;;3.72;2.83;;;;;;;;;;5000404;28;20019;-68
2023/09/02 02:48:11;;;;;;;4.93;2.50;;;;;;;;;;4998144;28;20062;-68
2023/09/02 02:50:36;;;;;;;3.40;2.83;;;;;;;;;;4992786;28;20129;-68
2023/09/02 02:53:02;;;;;;;7.78;2.85;;;;;;;;;;4991665;28;20121;-68
2023/09/02 02:55:27;;;;;;;6.88;2.47;;;;;;;;;;4996872;28;20033;-68
2023/09/02 02:57:53;;;;;;;10.93;3.30;;;;;;;;;;4998562;28;20034;-68
2023/09/02 03:00:18;;;;;;;12.80;2.65;;;;;;;;;;4993181;28;20030;-68
2023/09/02 03:02:43;;;;;;;11.40;2.60;;;;;;;;;;4990352;28;20472;-68
2023/09/02 03:05:09;;;;;;;7.95;2.40;;;;;;;;;;4997891;28;20039;-68
2023/09/02 03:07:35;;;;;;;5.78;2.20;;;;;;;;;;4998043;28;20119;-68
2023/09/02 03:10:00;;;;;;;3.70;2.70;;;;;;;;;;4987191;28;20546;-68
2023/09/02 03:12:26;;;;;;;6.20;3.08;;;;;;;;;;5000397;28;20034;-68
2023/09/02 03:14:51;;;;;;;5.53;2.05;;;;;;;;;;4997901;28;20033;-68
2023/09/02 03:17:20;;;;;;;6.28;2.65;;;;;;;;;;4997945;28;20121;-68
2023/09/02 03:19:48;;;;;;;5.22;2.05;;;;;;;;;;4992288;28;20073;-68
2023/09/02 03:22:14;;;;;;;7.85;2.70;;;;;;;;;;4991316;28;20484;-68
2023/09/02 03:24:39;;;;;;;8.88;2.90;;;;;;;;;;4996461;28;20033;-68
2023/09/02 03:27:05;;;;;;;7.22;2.38;;;;;;;;;;4998125;28;20038;-68
2023/09/02 03:29:30;;;;;;;3.95;2.38;;;;;;;;;;4993915;28;20037;-68
2023/09/02 03:31:55;;;;;;;6.50;2.83;;;;;;;;;;4992150;28;20073;-68
2023/09/02 03:34:21;;;;;;;6.30;2.75;;;;;;;;;;4983244;28;20031;-68
2023/09/02 03:36:46;;;;;;;4.47;2.53;;;;;;;;;;4993391;28;20037;-68
2023/09/02 03:39:12;;;;;;;5.05;2.97;;;;;;;;;;5000558;28;20389;-68
2023/09/02 03:41:37;;;;;;;5.07;2.70;;;;;;;;;;4990315;28;20046;-68
2023/09/02 03:44:03;;;;;;;4.50;2.70;;;;;;;;;;4980408;28;20054;-68
2023/09/02 03:46:29;;;;;;;9.30;3.08;;;;;;;;;;4997804;28;20521;-68
2023/09/02 03:48:54;;;;;;;7.45;2.58;;;;;;;;;;4991881;28;20029;-68
2023/09/02 03:51:20;;;;;;;6.78;2.97;;;;;;;;;;4991533;28;20535;-68
2023/09/02 03:53:45;;;;;;;6.93;2.58;;;;;;;;;;5001038;28;20086;-68
2023/09/02 03:56:11;;;;;;;4.07;2.80;;;;;;;;;;4993455;28;20045;-68
2023/09/02 03:58:36;;;;;;;7.28;2.97;;;;;;;;;;5000371;28;20044;-68
2023/09/02 04:01:05;;;;;;;7.78;3.17;;;;;;;;;;5001223;28;20026;-67
2023/09/02 04:03:37;;;;;;;6.03;2.72;;;;;;;;;;4994490;28;20531;-68
2023/09/02 04:06:03;;;;;;;13.38;3.63;;;;;;;;;;4994339;28;20559;-68
2023/09/02 04:08:33;;;;;;;8.30;3.13;;;;;;;;;;5000479;28;20108;-68
2023/09/02 04:10:59;;;;;;;7.25;3.17;;;;;;;;;;5000927;28;20522;-68
2023/09/02 04:13:26;;;;;;;4.88;3.00;;;;;;;;;;4996424;28;20521;-68
2023/09/02 04:15:55;;;;;;;10.65;3.17;;;;;;;;;;4992920;28;20032;-68
2023/09/02 04:18:21;;;;;;;6.25;2.97;;;;;;;;;;4998324;28;20030;-68
2023/09/02 04:20:46;;;;;;;5.45;2.60;;;;;;;;;;4996523;28;20042;-68
2023/09/02 04:23:12;;;;;;;6.97;2.55;;;;;;;;;;4996834;28;20079;-68
2023/09/02 04:25:48;;;;;;;4.05;2.40;;;;;;;;;;4993845;28;20034;-68
2023/09/02 04:28:14;;;;;;;5.97;2.55;;;;;;;;;;4983206;28;20089;-68
2023/09/02 04:30:40;;;;;;;5.90;2.53;;;;;;;;;;5000657;28;20516;-68
2023/09/02 04:33:05;;;;;;;4.97;2.47;;;;;;;;;;4999238;28;20092;-68
2023/09/02 04:35:39;;;;;;;9.48;2.72;;;;;;;;;;4989575;28;20057;-68
2023/09/02 04:38:05;;;;;;;9.07;2.80;;;;;;;;;;4985125;28;20045;-68
2023/09/02 04:40:35;;;;;;;7.15;2.72;;;;;;;;;;4976746;28;20405;-68
2023/09/02 04:43:00;;;;;;;5.80;2.45;;;;;;;;;;4986005;28;20077;-68
2023/09/02 04:45:25;;;;;;;8.07;2.60;;;;;;;;;;5000928;28;20030;-68
2023/09/02 04:47:51;;;;;;;6.10;2.45;;;;;;;;;;4998655;28;20041;-68
2023/09/02 04:50:16;;;;;;;4.88;2.00;;;;;;;;;;4994254;28;20418;-68
2023/09/02 04:52:44;;;;;;;4.15;2.33;;;;;;;;;;4995656;28;20042;-68
2023/09/02 04:55:10;;;;;;;4.93;2.50;;;;;;;;;;5000815;28;20490;-68
2023/09/02 04:57:35;;;;;;;5.80;2.50;;;;;;;;;;5002918;28;20092;-68
2023/09/02 05:00:00;;;;;;;4.47;2.20;;;;;;;;;;5003020;28;20037;-68
2023/09/02 05:02:26;;;;;;;2.95;1.92;;;;;;;;;;5000316;28;20717;-68
2023/09/02 05:04:52;;;;;;;8.77;2.40;;;;;;;;;;5003454;28;20038;-68
2023/09/02 05:07:17;;;;;;;6.85;2.22;;;;;;;;;;4996201;28;20041;-68
2023/09/02 05:09:42;;;;;;;5.13;2.83;;;;;;;;;;5000229;28;20030;-68
2023/09/02 05:12:08;;;;;;;6.60;2.75;;;;;;;;;;4997701;28;20133;-68
2023/09/02 05:14:33;;;;;;;6.03;2.75;;;;;;;;;;4993206;28;20092;-68
2023/09/02 05:16:58;;;;;;;3.15;2.33;;;;;;;;;;4995235;28;20585;-68
2023/09/02 05:19:25;;;;;;;4.00;2.50;;;;;;;;;;4999325;28;20038;-68
2023/09/02 05:21:50;;;;;;;5.50;2.90;;;;;;;;;;4998537;28;20048;-68
2023/09/02 05:24:15;;;;;;;6.53;2.47;;;;;;;;;;4992853;28;20558;-68
2023/09/02 05:26:40;;;;;;;7.28;2.40;;;;;;;;;;4994493;28;20431;-68
2023/09/02 05:29:06;;;;;;;4.75;2.35;;;;;;;;;;4999713;28;20030;-68
2023/09/02 05:31:31;;;;;;;4.10;2.35;;;;;;;;;;4982351;28;20096;-68
2023/09/02 05:33:57;;;;;;;10.60;2.38;;;;;;;;;;4981399;28;20030;-68
2023/09/02 05:36:22;;;;;;;7.93;2.08;;;;;;;;;;4989064;28;20034;-68
2023/09/02 05:38:47;;;;;;;5.18;2.10;;;;;;;;;;4998664;28;20153;-68
2023/09/02 05:41:12;;;;;;;8.27;2.80;;;;;;;;;;4995899;28;20061;-68
2023/09/02 05:43:38;;;;;;;7.10;2.00;;;;;;;;;;4992647;28;20534;-68
2023/09/02 05:46:03;;;;;;;5.93;2.70;;;;;;;;;;4995777;28;20411;-68
2023/09/02 05:48:29;;;;;;;4.88;2.25;;;;;;;;;;4999265;28;20049;-68
2023/09/02 05:50:57;;;;;;;11.50;2.58;;;;;;;;;;4996367;28;20052;-68
2023/09/02 05:53:23;;;;;;;7.03;2.33;;;;;;;;;;4992391;28;20042;-68
2023/09/02 05:55:55;;;;;;;7.63;2.63;;;;;;;;;;4994504;28;20035;-68
2023/09/02 05:58:22;;;;;;;4.87;2.50;;;;;;;;;;4997761;28;20050;-68
2023/09/02 06:00:48;;;;;;;6.65;4.03;;;;;;;;;;4999494;28;20030;-68
2023/09/02 06:03:13;;;;;;;6.38;3.88;;;;;;;;;;4985551;28;20084;-68
2023/09/02 06:05:38;;;;;;;5.63;3.05;;;;;;;;;;4995228;28;20133;-68
2023/09/02 06:08:04;;;;;;;4.28;3.20;;;;;;;;;;4971047;28;20055;-68
2023/09/02 06:10:29;;;;;;;8.90;3.70;;;;;;;;;;4970533;28;20049;-68
2023/09/02 06:12:55;;;;;;;6.13;2.85;;;;;;;;;;4976177;28;20566;-68
2023/09/02 06:15:20;;;;;;;5.20;2.92;;;;;;;;;;4987574;28;20138;-68
2023/09/02 06:17:45;;;;;;;4.05;3.03;;;;;;;;;;4991964;28;20119;-68
2023/09/02 06:20:15;;;;;;;5.72;2.88;;;;;;;;;;4995133;28;20054;-68
2023/09/02 06:22:40;;;;;;;4.80;2.83;;;;;;;;;;5003899;28;20045;-68
2023/09/02 06:25:06;;;;;;;8.27;2.72;;;;;;;;;;5008866;28;20026;-68
2023/09/02 06:27:31;;;;;;;5.57;2.92;;;;;;;;;;4996753;28;20026;-68
2023/09/02 06:29:57;;;;;;;6.75;2.90;;;;;;;;;;4993387;28;20050;-68
2023/09/02 06:32:22;;;;;;;6.55;2.72;;;;;;;;;;4985271;28;20128;-68
2023/09/02 06:34:48;;;;;;;4.68;3.20;;;;;;;;;;4992797;28;20038;-68
2023/09/02 06:37:13;;;;;;;6.55;3.30;;;;;;;;;;4991373;28;20032;-68
2023/09/02 06:39:39;;;;;;;8.32;2.75;;;;;;;;;;4995421;28;20135;-68
2023/09/02 06:42:04;;;;;;;5.43;3.20;;;;;;;;;;4998250;28;20041;-68
2023/09/02 06:44:30;;;;;;;6.15;3.30;;;;;;;;;;4994923;28;20042;-68
2023/09/02 06:46:55;;;;;;;7.38;3.28;;;;;;;;;;4991906;28;20053;-68
2023/09/02 06:49:21;;;;;;;7.95;3.35;;;;;;;;;;4999918;28;20072;-68
2023/09/02 06:51:46;;;;;;;4.70;2.88;;;;;;;;;;4992517;28;20045;-68
2023/09/02 06:54:11;;;;;;;6.65;3.40;;;;;;;;;;5001380;28;20060;-68
2023/09/02 06:56:36;;;;;;;5.00;3.50;;;;;;;;;;4991499;28;20037;-68
2023/09/02 06:59:03;;;;;;;4.65;2.75;;;;;;;;;;4994110;28;20053;-68
2023/09/02 07:01:28;;;;;;;9.15;2.90;;;;;;;;;;4997235;28;20086;-68
2023/09/02 07:03:55;;;;;;;4.40;3.20;;;;;;;;;;4975258;28;20047;-68
2023/09/02 07:06:21;;;;;;;7.93;3.00;;;;;;;;;;4997722;28;20522;-68
2023/09/02 07:08:46;;;;;;;5.18;3.33;;;;;;;;;;4995122;28;20038;-68
2023/09/02 07:11:13;;;;;;;3.45;2.83;;;;;;;;;;4991481;28;20511;-68
2023/09/02 07:13:38;;;;;;;5.60;3.03;;;;;;;;;;4994315;28;20098;-68
2023/09/02 07:16:06;;;;;;;3.40;2.88;;;;;;;;;;4997819;28;20508;-68
2023/09/02 07:18:31;;;;;;;4.38;3.00;;;;;;;;;;4994031;28;20416;-68
2023/09/02 07:20:59;;;;;;;4.35;2.90;;;;;;;;;;4990075;28;20520;-67
2023/09/02 07:23:24;;;;;;;4.25;3.22;;;;;;;;;;4987066;28;20065;-68
2023/09/02 07:25:50;;;;;;;4.13;2.88;;;;;;;;;;4997634;28;20047;-68
2023/09/02 07:28:15;;;;;;;9.15;3.38;;;;;;;;;;5000094;28;20057;-68
2023/09/02 07:30:40;;;;;;;3.83;2.67;;;;;;;;;;4993125;28;20035;-68
2023/09/02 07:33:06;;;;;;;4.78;2.60;;;;;;;;;;4976847;28;20061;-68
2023/09/02 07:35:36;;;;;;;3.97;2.92;;;;;;;;;;4977947;28;20034;-68
2023/09/02 07:38:03;;;;;;;5.03;2.90;;;;;;;;;;4987340;28;20045;-68
2023/09/02 07:40:28;;;;;;;4.93;3.00;;;;;;;;;;4980964;28;20113;-68
2023/09/02 07:42:53;;;;;;;7.70;3.10;;;;;;;;;;4989565;28;20184;-68
2023/09/02 07:45:19;;;;;;;4.18;3.15;;;;;;;;;;4998588;28;20072;-68
2023/09/02 07:47:44;;;;;;;5.72;2.88;;;;;;;;;;4989916;28;20049;-68
2023/09/02 07:50:09;;;;;;;3.22;2.60;;;;;;;;;;4987540;28;20045;-68
2023/09/02 07:52:35;;;;;;;4.97;3.35;;;;;;;;;;4979258;28;20051;-68
2023/09/02 07:55:00;;;;;;;6.65;3.13;;;;;;;;;;5000067;28;20117;-69
2023/09/02 07:57:25;;;;;;;4.63;3.13;;;;;;;;;;4999384;28;20041;-68
2023/09/02 07:59:51;;;;;;;4.85;3.28;;;;;;;;;;4993187;28;20049;-68
2023/09/02 08:02:17;;;;;;;4.57;3.17;;;;;;;;;;4997008;28;20038;-68
2023/09/02 08:04:42;;;;;;;6.13;3.30;;;;;;;;;;4997837;28;20042;-68
2023/09/02 08:07:07;;;;;;;4.65;3.08;;;;;;;;;;4995449;28;20052;-68
2023/09/02 08:09:33;;;;;;;6.00;2.80;;;;;;;;;;4991800;28;20038;-69
2023/09/02 08:11:58;;;;;;;6.13;3.38;;;;;;;;;;4996393;28;20038;-68
2023/09/02 08:14:23;;;;;;;4.85;3.10;;;;;;;;;;5000406;28;20096;-69
2023/09/02 08:16:49;;;;;;;4.32;3.25;;;;;;;;;;4998011;28;20096;-69
2023/09/02 08:19:14;;;;;;;4.43;3.10;;;;;;;;;;4994803;28;20619;-67
2023/09/02 08:21:39;;;;;;;5.15;3.15;;;;;;;;;;4976108;28;20355;-67
2023/09/02 08:24:05;;;;;;;8.20;2.72;;;;;;;;;;4977603;28;20058;-67
2023/09/02 08:26:30;;;;;;;5.15;2.80;;;;;;;;;;4985293;28;20138;-67
2023/09/02 08:28:56;;;;;;;7.68;2.97;;;;;;;;;;4999355;28;20046;-67
2023/09/02 08:31:21;;;;;;;4.65;2.65;;;;;;;;;;4996621;28;20061;-68
2023/09/02 08:33:46;;;;;;;3.95;3.08;;;;;;;;;;4992542;28;20080;-68
2023/09/02 08:36:16;;;;;;;3.30;2.53;;;;;;;;;;4988567;28;20110;-68
2023/09/02 08:38:41;;;;;;;4.97;3.00;;;;;;;;;;4998390;28;20057;-68
2023/09/02 08:41:09;;;;;;;5.47;3.10;;;;;;;;;;4994978;28;20037;-68
2023/09/02 08:43:35;;;;;;;5.82;2.70;;;;;;;;;;4993459;28;20559;-68
2023/09/02 08:46:03;;;;;;;6.70;3.10;;;;;;;;;;4997674;28;20062;-68
2023/09/02 08:48:32;;;;;;;3.92;3.10;;;;;;;;;;5000280;28;20407;-68
2023/09/02 08:50:57;;;;;;;5.80;3.03;;;;;;;;;;4997281;28;20038;-68
2023/09/02 08:53:25;;;;;;;4.47;2.40;;;;;;;;;;4993138;28;20034;-68
2023/09/02 08:55:51;;;;;;;4.65;2.80;;;;;;;;;;4995886;28;20080;-68
2023/09/02 08:58:17;;;;;;;4.00;2.92;;;;;;;;;;4999854;28;20033;-68
2023/09/02 09:00:43;;;;;;;5.63;2.88;;;;;;;;;;4998950;28;20112;-68
2023/09/02 09:03:11;;;;;;;3.63;2.65;;;;;;;;;;4991642;28;20107;-68
2023/09/02 09:05:42;;;;;;;4.13;2.33;;;;;;;;;;4995189;28;20045;-68
2023/09/02 09:08:09;;;;;;;4.60;2.45;;;;;;;;;;5000723;28;20041;-68
2023/09/02 09:10:35;;;;;;;3.88;2.60;;;;;;;;;;5002368;28;20046;-68
2023/09/02 09:13:04;;;;;;;3.58;2.30;;;;;;;;;;5003846;28;20036;-68
2023/09/02 09:15:32;;;;;;;3.13;2.30;;;;;;;;;;4999438;28;20030;-68
2023/09/02 09:17:58;;;;;;;3.17;2.55;;;;;;;;;;5000420;28;20038;-68
2023/09/02 09:20:24;;;;;;;3.08;2.60;;;;;;;;;;4999656;28;20132;-68
2023/09/02 09:22:50;;;;;;;4.55;2.58;;;;;;;;;;4992882;28;20056;-68
2023/09/02 09:25:16;;;;;;;5.40;2.40;;;;;;;;;;4992889;28;20030;-68
2023/09/02 09:27:41;;;;;;;4.90;2.30;;;;;;;;;;4999944;28;20029;-68
2023/09/02 09:30:26;;;;;;;3.75;2.40;;;;;;;;;;4999541;28;20069;-68
2023/09/02 09:33:01;;;;;;;3.15;1.92;;;;;;;;;;4996488;28;20042;-68
2023/09/02 09:35:28;;;;;;;3.42;2.20;;;;;;;;;;4989903;28;20124;-68
2023/09/02 09:37:54;;;;;;;3.05;2.20;;;;;;;;;;4995456;28;20768;-68
2023/09/02 09:40:31;;;;;;;2.92;2.15;;;;;;;;;;4992724;28;20035;-68
2023/09/02 09:42:58;;;;;;;2.97;2.15;;;;;;;;;;4995971;28;20034;-68
2023/09/02 09:45:24;;;;;;;3.42;2.08;;;;;;;;;;4999277;28;20046;-68
2023/09/02 09:47:51;;;;;;;4.40;2.08;;;;;;;;;;4997567;28;20057;-68
2023/09/02 09:50:16;;;;;;;5.03;1.92;;;;;;;;;;4992154;28;20526;-68
2023/09/02 09:52:59;;;;;;;2.55;1.92;;;;;;;;;;4993535;28;20066;-68
2023/09/02 09:55:25;;;;;;;3.50;2.00;;;;;;;;;;4980070;28;20038;-68
2023/09/02 09:57:54;;;;;;;2.97;2.00;;;;;;;;;;4993534;28;20030;-68
2023/09/02 10:00:20;;;;;;;3.30;2.13;;;;;;;;;;4990993;28;20042;-69
2023/09/02 10:02:56;;;;;;;3.35;2.20;;;;;;;;;;4967200;28;20038;-69
2023/09/02 10:05:27;;;;;;;3.28;2.20;;;;;;;;;;4991703;28;20042;-69
2023/09/02 10:08:01;;;;;;;2.83;2.08;;;;;;;;;;4991919;28;20050;-69
2023/09/02 10:10:31;;;;;;;5.93;1.95;;;;;;;;;;4995461;28;20041;-69
2023/09/02 10:12:58;;;;;;;2.10;1.90;;;;;;;;;;4998059;28;20038;-69
2023/09/02 10:15:26;;;;;;;2.00;1.80;;;;;;;;;;4997130;28;20084;-70
2023/09/02 10:17:57;;;;;;;2.15;1.70;;;;;;;;;;4972901;28;20050;-68
2023/09/02 10:20:26;;;;;;;4.63;1.58;;;;;;;;;;4977129;28;20061;-69
2023/09/02 10:22:51;;;;;;;4.00;1.83;;;;;;;;;;4978292;28;20770;-69
2023/09/02 10:25:24;;;;;;;2.60;1.73;;;;;;;;;;4991528;28;20120;-69
2023/09/02 10:28:09;;;;;;;2.88;1.67;;;;;;;;;;4997480;28;20030;-69
2023/09/02 10:30:45;;;;;;;3.90;2.00;;;;;;;;;;4994627;28;20124;-68
2023/09/02 10:33:16;;;;;;;3.30;1.77;;;;;;;;;;4969866;28;20038;-69
2023/09/02 10:35:43;;;;;;;3.55;1.95;;;;;;;;;;4978295;28;20049;-69
2023/09/02 10:38:11;;;;;;;3.88;1.83;;;;;;;;;;5005565;28;20081;-69
2023/09/02 10:40:40;;;;;;;4.10;1.90;;;;;;;;;;4990625;28;20080;-69
2023/09/02 10:43:06;;;;;;;3.38;1.80;;;;;;;;;;4993553;28;20107;-69
2023/09/02 10:45:32;;;;;;;4.03;1.70;;;;;;;;;;4997751;28;20690;-69
2023/09/02 10:47:59;;;;;;;2.10;1.70;;;;;;;;;;4997617;28;20049;-69
2023/09/02 10:50:24;;;;;;;2.10;1.90;;;;;;;;;;4990920;28;20046;-69
2023/09/02 10:52:50;;;;;;;4.88;1.70;;;;;;;;;;4990838;28;20037;-69
2023/09/02 10:55:16;;;;;;;2.65;1.65;;;;;;;;;;4997178;28;20022;-69
2023/09/02 10:57:45;;;;;;;2.95;1.70;;;;;;;;;;4996825;28;20080;-69
2023/09/02 11:00:17;;;;;;;3.70;2.00;;;;;;;;;;4966573;28;20035;-69
2023/09/02 11:02:44;;;;;;;3.38;1.70;;;;;;;;;;4982678;28;20193;-69
2023/09/02 11:05:11;;;;;;;3.63;1.67;;;;;;;;;;5001733;28;20036;-69
2023/09/02 11:07:39;;;;;;;7.55;1.73;;;;;;;;;;5002014;28;20172;-69
2023/09/02 11:10:06;;;;;;;2.92;1.70;;;;;;;;;;4996382;28;20684;-69
2023/09/02 11:12:33;;;;;;;5.72;1.65;;;;;;;;;;4995660;28;20555;-69
2023/09/02 11:15:07;;;;;;;2.58;1.70;;;;;;;;;;5001333;28;20778;-68
2023/09/02 11:17:34;;;;;;;2.75;1.60;;;;;;;;;;5001931;28;20136;-68
2023/09/02 11:20:04;;;;;;;4.00;1.88;;;;;;;;;;4998409;28;20408;-68
2023/09/02 11:22:46;;;;;;;3.33;1.98;;;;;;;;;;4995414;28;20128;-68
2023/09/02 11:25:29;;;;;;;1.65;1.35;;;;;;;;;;4994490;28;20053;-68
2023/09/02 11:27:55;;;;;;;1.98;1.52;;;;;;;;;;4987132;28;20088;-69
2023/09/02 11:30:25;;;;;;;2.30;1.60;;;;;;;;;;4994121;28;20076;-68
2023/09/02 11:32:51;;;;;;;2.20;1.73;;;;;;;;;;4998278;28;20041;-68
2023/09/02 11:35:23;;;;;;;2.38;1.50;;;;;;;;;;4976281;28;20038;-68
2023/09/02 11:37:49;;;;;;;1.75;1.40;;;;;;;;;;4997084;28;20045;-68
2023/09/02 11:40:15;;;;;;;3.25;1.50;;;;;;;;;;4993448;28;20030;-67
2023/09/02 11:42:54;;;;;;;1.63;1.52;;;;;;;;;;4999468;28;20022;-68
2023/09/02 11:45:20;;;;;;;1.40;1.20;;;;;;;;;;5000803;28;20054;-68
2023/09/02 11:47:47;;;;;;;4.20;1.52;;;;;;;;;;5003160;28;20483;-68
2023/09/02 11:50:18;;;;;;;2.08;1.10;;;;;;;;;;4984640;28;20298;-68
2023/09/02 11:52:44;;;;;;;5.18;1.20;;;;;;;;;;4977253;28;20060;-68
2023/09/02 11:55:14;;;;;;;2.70;1.17;;;;;;;;;;4982801;28;20529;-68
2023/09/02 11:57:40;;;;;;;2.60;1.05;;;;;;;;;;4987209;28;20022;-68
2023/09/02 12:00:07;;;;;;;1.63;1.17;;;;;;;;;;5008233;28;20038;-68
2023/09/02 12:02:36;;;;;;;1.95;1.23;;;;;;;;;;5007198;28;20099;-68
2023/09/02 12:05:03;;;;;;;1.80;1.40;;;;;;;;;;4994660;28;20027;-67
2023/09/02 12:07:30;;;;;;;3.42;1.25;;;;;;;;;;4975700;28;20205;-68
2023/09/02 12:09:55;;;;;;;2.63;1.52;;;;;;;;;;4997825;28;20030;-68
2023/09/02 12:12:21;;;;;;;2.50;1.08;;;;;;;;;;5000458;28;20049;-68
2023/09/02 12:14:47;;;;;;;2.35;1.30;;;;;;;;;;4996177;28;20424;-67
2023/09/02 12:17:13;;;;;;;1.77;1.02;;;;;;;;;;4992989;28;20041;-67
2023/09/02 12:19:38;;;;;;;1.50;1.10;;;;;;;;;;4986003;28;20457;-67
2023/09/02 12:22:04;;;;;;;2.50;1.10;;;;;;;;;;4978990;28;20026;-67
2023/09/02 12:24:29;;;;;;;1.60;1.10;;;;;;;;;;4994013;28;20022;-67
2023/09/02 12:26:55;;;;;;;1.85;1.17;;;;;;;;;;4997900;28;20069;-67
2023/09/02 12:29:22;;;;;;;2.63;1.10;;;;;;;;;;5000289;28;20052;-67
2023/09/02 12:31:58;;;;;;;3.15;1.40;;;;;;;;;;4990570;28;20047;-67
2023/09/02 12:34:24;;;;;;;2.42;1.30;;;;;;;;;;4998533;28;20037;-67
2023/09/02 12:36:50;;;;;;;1.83;1.20;;;;;;;;;;4989745;28;20022;-67
2023/09/02 12:39:27;;;;;;;1.83;1.33;;;;;;;;;;4999944;28;20101;-67
2023/09/02 12:41:53;;;;;;;2.78;0.93;;;;;;;;;;5000019;28;20097;-68
2023/09/02 12:44:19;;;;;;;1.73;1.00;;;;;;;;;;4995186;28;20075;-67
2023/09/02 12:46:47;;;;;;;1.13;0.95;;;;;;;;;;4993487;28;20049;-68
2023/09/02 12:49:16;;;;;;;3.15;1.08;;;;;;;;;;4997323;28;20026;-68
2023/09/02 12:51:42;;;;;;;2.53;1.23;;;;;;;;;;5000002;28;20033;-67
2023/09/02 12:54:10;;;;;;;2.90;1.35;;;;;;;;;;5001673;28;20042;-68
2023/09/02 12:56:35;;;;;;;1.90;1.23;;;;;;;;;;4999474;28;20042;-68
2023/09/02 12:59:00;;;;;;;1.40;1.10;;;;;;;;;;4992267;28;20045;-67
2023/09/02 13:01:26;;;;;;;1.90;1.20;;;;;;;;;;4993891;28;20050;-68
2023/09/02 13:03:51;;;;;;;2.30;1.10;;;;;;;;;;5000055;28;20033;-67
2023/09/02 13:06:17;;;;;;;1.48;1.08;;;;;;;;;;4998882;28;20516;-68
2023/09/02 13:08:43;;;;;;;2.50;1.10;;;;;;;;;;4992991;28;20038;-67
2023/09/02 13:11:08;;;;;;;1.85;1.33;;;;;;;;;;4993133;28;20040;-67
2023/09/02 13:13:34;;;;;;;2.50;1.63;;;;;;;;;;4999706;28;20038;-67
2023/09/02 13:15:59;;;;;;;1.95;1.00;;;;;;;;;;4999780;28;20462;-67
2023/09/02 13:18:25;;;;;;;2.05;1.20;;;;;;;;;;4993776;28;20423;-67
2023/09/02 13:20:52;;;;;;;2.60;1.30;;;;;;;;;;4993446;28;20034;-67
2023/09/02 13:23:18;;;;;;;2.45;1.30;;;;;;;;;;5001664;28;20046;-67
2023/09/02 13:25:43;;;;;;;1.58;1.00;;;;;;;;;;5009520;28;20045;-67
2023/09/02 13:28:09;;;;;;;1.42;1.17;;;;;;;;;;4998064;28;20077;-67
2023/09/02 13:30:35;;;;;;;2.97;1.38;;;;;;;;;;4991737;28;20054;-67
2023/09/02 13:33:00;;;;;;;2.97;1.33;;;;;;;;;;4998345;28;20042;-67
2023/09/02 13:35:27;;;;;;;1.90;1.40;;;;;;;;;;4987432;28;20054;-67
2023/09/02 13:37:52;;;;;;;1.63;1.25;;;;;;;;;;4995425;28;20033;-67
2023/09/02 13:40:37;;;;;;;1.52;1.20;;;;;;;;;;4993085;28;20081;-67
2023/09/02 13:43:13;;;;;;;1.40;1.10;;;;;;;;;;4994929;28;20423;-68
2023/09/02 13:45:39;;;;;;;3.60;1.27;;;;;;;;;;4998896;28;20049;-67
2023/09/02 13:48:06;;;;;;;1.35;1.00;;;;;;;;;;4998735;28;20042;-67
2023/09/02 13:50:32;;;;;;;2.20;1.20;;;;;;;;;;4990947;28;20046;-67
2023/09/02 13:52:59;;;;;;;2.03;1.15;;;;;;;;;;4993324;28;20111;-67
2023/09/02 13:55:35;;;;;;;2.15;1.08;;;;;;;;;;4998638;28;20085;-67
2023/09/02 13:58:01;;;;;;;1.90;1.00;;;;;;;;;;4988278;28;20026;-67
2023/09/02 14:00:35;;;;;;;3.28;1.20;;;;;;;;;;4999039;28;20272;-67
2023/09/02 14:03:01;;;;;;;1.40;1.23;;;;;;;;;;4998372;28;20470;-67
2023/09/02 14:05:26;;;;;;;2.63;1.20;;;;;;;;;;4992875;28;20046;-67
2023/09/02 14:07:52;;;;;;;1.55;1.30;;;;;;;;;;4984428;28;20042;-67
2023/09/02 14:10:19;;;;;;;1.92;1.40;;;;;;;;;;4998118;28;20027;-68
2023/09/02 14:12:45;;;;;;;1.25;1.15;;;;;;;;;;4999330;28;20062;-68
2023/09/02 14:15:11;;;;;;;3.13;1.83;;;;;;;;;;4965995;28;20038;-67
2023/09/02 14:17:36;;;;;;;2.72;1.50;;;;;;;;;;4992468;28;20042;-67
2023/09/02 14:20:02;;;;;;;3.30;1.50;;;;;;;;;;4992652;28;20422;-67
2023/09/02 14:22:28;;;;;;;4.60;1.60;;;;;;;;;;4992240;28;20030;-67
2023/09/02 14:24:53;;;;;;;1.77;1.20;;;;;;;;;;4998062;28;20030;-67
2023/09/02 14:27:18;;;;;;;3.05;1.83;;;;;;;;;;5001582;28;20189;-67
2023/09/02 14:29:44;;;;;;;3.05;1.65;;;;;;;;;;4997948;28;20062;-67
2023/09/02 14:32:09;;;;;;;3.05;1.40;;;;;;;;;;4999003;28;20638;-67
2023/09/02 14:34:36;;;;;;;2.47;1.20;;;;;;;;;;4985857;28;20042;-68
2023/09/02 14:37:03;;;;;;;1.60;1.13;;;;;;;;;;4989753;28;20109;-67
2023/09/02 14:39:33;;;;;;;2.53;1.50;;;;;;;;;;4996653;28;20065;-67
2023/09/02 14:41:59;;;;;;;1.88;1.50;;;;;;;;;;4998786;28;20038;-67